Time;durP1;ratioP1;P1;durP2;ratioP2;P2;SDS_P1;SDS_P2;PMS_P1;PMS_P2;Temp;Humidity;BMP_temperature;BMP_pressure;BME280_temperature;BME280_humidity;BME280_pressure;Samples;Min_cycle;Max_cycle;Signal;HPM_P1;HPM_P2
2022/09/19 00:01:30;;;;;;;2.67;1.05;;;13.60;51.80;;;;;;5047002;28;20021;-74
2022/09/19 00:04:23;;;;;;;0.88;0.65;;;13.60;51.80;;;;;;5050804;28;20025;-74
2022/09/19 00:06:53;;;;;;;1.50;1.15;;;13.50;51.80;;;;;;5042744;28;20033;-75
2022/09/19 00:09:21;;;;;;;1.40;0.90;;;13.40;51.60;;;;;;5062157;28;20421;-75
2022/09/19 00:11:48;;;;;;;2.70;1.55;;;13.40;51.70;;;;;;5049049;28;20031;-75
2022/09/19 00:14:18;;;;;;;0.95;0.80;;;13.40;51.80;;;;;;5048830;28;20393;-75
2022/09/19 00:16:46;;;;;;;2.05;0.70;;;13.40;52.00;;;;;;5047295;28;20068;-75
2022/09/19 00:19:18;;;;;;;1.23;0.70;;;13.30;51.80;;;;;;5038596;28;20052;-74
2022/09/19 00:21:45;;;;;;;1.08;0.82;;;13.30;52.00;;;;;;5047491;28;20155;-74
2022/09/19 00:27:02;;;;;;;1.25;0.85;;;13.20;52.60;;;;;;5048684;28;20489;-74
2022/09/19 00:29:28;;;;;;;1.65;0.90;;;13.10;51.90;;;;;;5050277;28;20036;-75
2022/09/19 00:31:53;;;;;;;1.40;0.90;;;13.10;52.00;;;;;;5013353;28;20030;-74
2022/09/19 00:34:20;;;;;;;0.93;0.60;;;13.10;52.10;;;;;;5044106;28;20032;-74
2022/09/19 00:36:47;;;;;;;1.60;0.77;;;13.00;52.10;;;;;;5029225;28;20029;-75
2022/09/19 00:39:16;;;;;;;1.10;0.77;;;13.00;52.20;;;;;;5047435;28;20110;-75
2022/09/19 00:41:44;;;;;;;1.08;0.93;;;12.90;52.10;;;;;;5041782;28;20063;-74
2022/09/19 00:44:22;;;;;;;0.98;0.70;;;12.90;52.20;;;;;;5029936;28;20039;-74
2022/09/19 00:47:05;;;;;;;1.50;0.73;;;12.90;52.40;;;;;;5046293;28;20071;-75
2022/09/19 00:49:37;;;;;;;0.68;0.68;;;12.80;52.20;;;;;;5040478;28;20033;-75
2022/09/19 00:52:09;;;;;;;1.13;0.80;;;12.80;52.20;;;;;;5041780;28;20043;-75
2022/09/19 00:54:40;;;;;;;1.27;0.80;;;12.80;52.30;;;;;;5051775;28;20515;-73
2022/09/19 00:57:09;;;;;;;1.58;0.70;;;12.70;52.30;;;;;;5047161;28;20465;-76
2022/09/19 00:59:37;;;;;;;0.90;0.70;;;12.70;52.30;;;;;;5047003;28;20033;-75
2022/09/19 01:02:06;;;;;;;1.73;1.10;;;12.70;52.40;;;;;;5050245;28;20041;-74
2022/09/19 01:04:35;;;;;;;0.98;0.60;;;12.70;52.50;;;;;;5044069;28;20029;-75
2022/09/19 01:07:41;;;;;;;1.65;0.60;;;12.60;52.30;;;;;;5052721;28;20082;-75
2022/09/19 01:10:14;;;;;;;0.90;0.77;;;12.60;52.40;;;;;;5042283;28;20229;-76
2022/09/19 01:12:46;;;;;;;1.00;0.80;;;12.60;52.50;;;;;;5047057;28;20480;-75
2022/09/19 01:15:39;;;;;;;1.08;0.90;;;12.50;52.30;;;;;;5048061;28;20412;-75
2022/09/19 01:18:07;;;;;;;0.50;0.50;;;12.50;52.40;;;;;;5050702;28;20041;-75
2022/09/19 01:24:06;;;;;;;0.68;0.68;;;12.40;52.40;;;;;;5051225;28;20043;-76
2022/09/19 01:26:51;;;;;;;1.48;0.68;;;12.40;52.40;;;;;;5030963;28;20606;-75
2022/09/19 01:29:25;;;;;;;1.27;0.70;;;12.40;52.40;;;;;;5048772;28;20036;-73
2022/09/19 01:31:57;;;;;;;1.60;0.60;;;12.30;52.40;;;;;;5045515;28;20033;-74
2022/09/19 01:34:32;;;;;;;0.77;0.68;;;12.30;52.40;;;;;;5037321;28;20032;-74
2022/09/19 01:37:12;;;;;;;1.52;0.80;;;12.20;52.40;;;;;;5042864;28;20079;-74
2022/09/19 01:39:43;;;;;;;0.98;0.68;;;12.20;52.40;;;;;;5050268;28;20021;-74
2022/09/19 01:42:15;;;;;;;2.03;0.70;;;12.20;52.60;;;;;;5049898;28;20111;-76
2022/09/19 01:44:41;;;;;;;0.60;0.52;;;12.10;52.50;;;;;;5052050;28;20372;-75
2022/09/19 01:47:40;;;;;;;1.40;0.70;;;12.10;52.60;;;;;;5044814;28;20043;-74
2022/09/19 01:50:33;;;;;;;0.98;0.73;;;12.10;52.80;;;;;;5041357;28;20056;-75
2022/09/19 01:53:01;;;;;;;0.73;0.50;;;12.10;52.80;;;;;;5049459;28;20017;-75
2022/09/19 01:55:48;;;;;;;0.90;0.70;;;12.00;52.50;;;;;;5048024;28;20045;-75
2022/09/19 01:58:46;;;;;;;2.45;0.70;;;12.00;52.60;;;;;;5049037;28;20029;-76
2022/09/19 02:01:36;;;;;;;0.82;0.70;;;12.00;52.80;;;;;;5063386;28;20020;-75
2022/09/19 02:04:26;;;;;;;1.35;0.90;;;11.90;52.60;;;;;;5051021;28;20077;-75
2022/09/19 02:07:01;;;;;;;0.60;0.60;;;11.90;52.70;;;;;;5041563;28;20025;-75
2022/09/19 02:10:00;;;;;;;0.93;0.63;;;11.90;52.60;;;;;;5040393;28;20033;-75
2022/09/19 02:12:33;;;;;;;1.35;0.73;;;11.90;52.80;;;;;;5046423;28;20029;-74
2022/09/19 02:15:03;;;;;;;0.70;0.70;;;11.80;52.50;;;;;;5039257;28;20032;-74
2022/09/19 02:17:50;;;;;;;1.23;0.90;;;11.80;52.60;;;;;;5048397;28;20033;-75
2022/09/19 02:20:29;;;;;;;2.88;0.90;;;11.80;52.70;;;;;;5041704;28;20025;-75
2022/09/19 02:23:24;;;;;;;1.35;0.80;;;11.70;52.60;;;;;;5031556;28;20566;-74
2022/09/19 02:25:53;;;;;;;0.90;0.80;;;11.70;52.70;;;;;;5049093;28;20384;-74
2022/09/19 02:28:25;;;;;;;1.25;0.73;;;11.60;52.50;;;;;;5048226;28;20037;-73
2022/09/19 02:30:55;;;;;;;1.73;0.73;;;11.60;52.60;;;;;;5048861;28;20028;-75
2022/09/19 02:33:22;;;;;;;1.50;1.05;;;11.60;52.70;;;;;;5035901;28;20063;-75
2022/09/19 02:36:04;;;;;;;1.40;0.90;;;11.50;52.50;;;;;;5025370;28;20207;-75
2022/09/19 02:38:53;;;;;;;1.85;1.00;;;11.50;52.80;;;;;;5048084;28;20024;-75
2022/09/19 02:41:49;;;;;;;1.02;0.77;;;11.50;52.80;;;;;;5041042;28;20528;-75
2022/09/19 02:44:23;;;;;;;1.33;1.00;;;11.40;52.60;;;;;;5039407;28;20225;-74
2022/09/19 02:47:08;;;;;;;;;;;11.40;52.60;;;;;;5058018;28;20021;-74
2022/09/19 02:49:41;;;;;;;2.80;1.30;;;11.40;52.60;;;;;;5048753;28;20269;-74
2022/09/19 02:52:15;;;;;;;3.45;1.35;;;11.40;52.40;;;;;;5050239;28;20021;-75
2022/09/19 02:54:46;;;;;;;1.98;1.13;;;11.40;52.60;;;;;;5048667;28;20037;-76
2022/09/19 02:57:17;;;;;;;1.63;0.90;;;11.30;52.60;;;;;;5043742;28;20097;-75
2022/09/19 02:59:46;;;;;;;1.02;0.93;;;11.30;52.70;;;;;;5061618;28;20033;-73
2022/09/19 03:02:25;;;;;;;3.03;1.23;;;11.30;52.80;;;;;;5056350;28;20404;-74
2022/09/19 03:05:01;;;;;;;2.35;0.95;;;11.30;52.90;;;;;;5030845;28;20333;-74
2022/09/19 03:07:34;;;;;;;1.40;0.90;;;11.30;52.90;;;;;;5042273;28;20028;-74
2022/09/19 03:10:12;;;;;;;2.20;1.00;;;11.30;53.00;;;;;;5066924;28;20033;-75
2022/09/19 03:13:09;;;;;;;1.00;0.90;;;11.20;52.90;;;;;;5067485;28;20051;-74
2022/09/19 03:15:38;;;;;;;2.05;0.85;;;11.20;52.90;;;;;;5055537;28;20037;-75
2022/09/19 03:18:17;;;;;;;2.30;1.00;;;11.20;53.00;;;;;;5032919;28;20029;-74
2022/09/19 03:20:53;;;;;;;0.90;0.70;;;11.20;53.20;;;;;;5049632;28;20384;-75
2022/09/19 03:23:39;;;;;;;1.10;0.80;;;11.20;53.20;;;;;;5050157;28;20402;-75
2022/09/19 03:26:12;;;;;;;1.55;1.08;;;11.10;53.10;;;;;;5054669;28;20032;-74
2022/09/19 03:28:38;;;;;;;0.95;0.80;;;11.10;53.00;;;;;;5054830;28;20021;-74
2022/09/19 03:31:06;;;;;;;2.47;0.80;;;11.10;53.10;;;;;;5053524;28;20029;-76
2022/09/19 03:33:33;;;;;;;1.17;1.08;;;11.10;53.20;;;;;;5054094;28;20422;-75
2022/09/19 03:36:06;;;;;;;1.08;0.80;;;11.10;53.30;;;;;;5054255;28;20455;-74
2022/09/19 03:38:32;;;;;;;1.75;1.25;;;11.00;53.20;;;;;;5063338;28;20029;-75
2022/09/19 03:41:01;;;;;;;1.10;0.65;;;11.00;53.20;;;;;;5063250;28;20515;-75
2022/09/19 03:43:29;;;;;;;1.70;0.90;;;11.00;53.30;;;;;;5054285;28;20049;-75
2022/09/19 03:45:56;;;;;;;1.33;0.80;;;10.90;53.20;;;;;;5036551;28;20041;-74
2022/09/19 03:48:24;;;;;;;0.90;0.82;;;10.90;53.30;;;;;;5052017;28;20041;-76
2022/09/19 03:50:50;;;;;;;1.25;1.05;;;10.90;53.30;;;;;;5064927;28;20055;-74
2022/09/19 03:53:17;;;;;;;1.65;0.75;;;10.90;54.00;;;;;;5054957;28;20500;-74
2022/09/19 03:55:44;;;;;;;1.50;0.88;;;10.80;53.30;;;;;;5070529;28;20158;-73
2022/09/19 03:58:14;;;;;;;0.98;0.88;;;10.90;53.50;;;;;;5045369;28;20035;-75
2022/09/19 04:00:40;;;;;;;1.15;0.52;;;10.80;53.40;;;;;;5052478;28;20086;-74
2022/09/19 04:03:10;;;;;;;0.85;0.70;;;10.80;53.40;;;;;;5055525;28;20033;-75
2022/09/19 04:05:36;;;;;;;1.70;0.98;;;10.80;53.50;;;;;;5033320;28;20066;-74
2022/09/19 04:08:02;;;;;;;1.00;0.90;;;10.80;53.50;;;;;;5066775;28;20076;-75
2022/09/19 04:10:28;;;;;;;0.82;0.75;;;10.70;53.30;;;;;;5050324;28;20484;-74
2022/09/19 04:12:56;;;;;;;0.82;0.65;;;10.70;53.40;;;;;;5051789;28;20039;-75
2022/09/19 04:15:22;;;;;;;1.33;1.23;;;10.70;53.40;;;;;;5047818;28;20033;-74
2022/09/19 04:17:48;;;;;;;1.13;1.00;;;10.70;53.50;;;;;;5047906;28;20020;-74
2022/09/19 04:20:17;;;;;;;0.75;0.75;;;10.60;53.40;;;;;;5031434;28;20028;-74
2022/09/19 04:23:00;;;;;;;0.75;0.70;;;10.60;53.40;;;;;;5034976;28;20485;-76
2022/09/19 04:25:38;;;;;;;0.70;0.70;;;10.60;53.40;;;;;;5032872;28;20314;-74
2022/09/19 04:28:11;;;;;;;1.45;0.98;;;10.60;53.50;;;;;;5030778;28;20036;-74
2022/09/19 04:30:42;;;;;;;2.17;0.80;;;10.60;53.50;;;;;;5031581;28;20432;-74
2022/09/19 04:33:11;;;;;;;0.93;0.70;;;10.60;53.60;;;;;;5026826;28;20041;-73
2022/09/19 04:35:43;;;;;;;1.33;0.85;;;10.60;53.70;;;;;;5049707;28;20286;-73
2022/09/19 04:38:12;;;;;;;0.93;0.65;;;10.50;53.50;;;;;;5049257;28;20062;-73
2022/09/19 04:40:40;;;;;;;2.35;0.80;;;10.60;53.80;;;;;;5039139;28;20035;-75
2022/09/19 04:43:08;;;;;;;1.85;0.90;;;10.60;53.80;;;;;;5032190;28;20049;-74
2022/09/19 04:45:34;;;;;;;1.13;1.00;;;10.60;53.90;;;;;;5033327;28;20052;-74
2022/09/19 04:48:17;;;;;;;1.85;0.80;;;10.60;53.90;;;;;;5047955;28;20025;-75
2022/09/19 04:50:45;;;;;;;0.68;0.68;;;10.60;53.90;;;;;;5044140;28;20126;-74
2022/09/19 04:53:16;;;;;;;0.98;0.60;;;10.60;53.90;;;;;;5048740;28;20025;-74
2022/09/19 04:55:49;;;;;;;1.23;0.80;;;10.70;54.10;;;;;;5054391;28;20055;-74
2022/09/19 04:58:15;;;;;;;0.75;0.70;;;10.70;54.10;;;;;;5039180;28;20036;-75
2022/09/19 05:00:45;;;;;;;0.60;0.60;;;10.70;54.10;;;;;;5047104;28;20117;-74
2022/09/19 05:03:16;;;;;;;0.80;0.80;;;10.60;53.90;;;;;;5049182;28;20033;-74
2022/09/19 05:05:50;;;;;;;1.08;0.70;;;10.70;54.10;;;;;;5027913;28;20583;-74
2022/09/19 05:08:26;;;;;;;0.60;0.60;;;10.60;54.00;;;;;;5024998;28;20461;-75
2022/09/19 05:10:58;;;;;;;1.30;0.85;;;10.60;54.00;;;;;;5040564;28;20041;-74
2022/09/19 05:13:28;;;;;;;0.77;0.65;;;10.60;54.10;;;;;;5057524;28;20066;-74
2022/09/19 05:15:56;;;;;;;1.65;1.02;;;10.60;54.10;;;;;;5046131;28;20041;-73
2022/09/19 05:18:23;;;;;;;1.48;1.02;;;10.60;54.20;;;;;;5024340;28;20042;-73
2022/09/19 05:20:54;;;;;;;1.00;0.85;;;10.60;54.20;;;;;;5032356;28;20029;-74
2022/09/19 05:23:24;;;;;;;1.55;0.82;;;10.50;54.10;;;;;;5029255;28;20032;-75
2022/09/19 05:25:53;;;;;;;1.13;0.82;;;10.50;54.20;;;;;;5027046;28;20532;-74
2022/09/19 05:28:23;;;;;;;0.50;0.50;;;10.50;54.20;;;;;;5046768;28;20561;-73
2022/09/19 05:30:54;;;;;;;1.00;0.68;;;10.50;54.30;;;;;;5032607;28;20129;-74
2022/09/19 05:33:25;;;;;;;0.98;0.90;;;10.40;54.20;;;;;;5027648;28;20052;-75
2022/09/19 05:35:51;;;;;;;1.27;0.90;;;10.40;54.30;;;;;;5025807;28;20308;-75
2022/09/19 05:38:32;;;;;;;0.82;0.73;;;10.40;54.40;;;;;;5047358;28;20601;-75
2022/09/19 05:41:21;;;;;;;1.27;0.93;;;10.40;54.40;;;;;;5038263;28;20474;-76
2022/09/19 05:43:53;;;;;;;0.93;0.93;;;10.40;54.40;;;;;;5048472;28;20018;-75
2022/09/19 05:46:20;;;;;;;1.00;1.00;;;10.30;54.30;;;;;;5046509;28;20086;-76
2022/09/19 05:48:48;;;;;;;1.17;0.88;;;10.20;54.20;;;;;;5028152;28;20432;-76
2022/09/19 05:51:15;;;;;;;1.17;0.90;;;10.20;54.40;;;;;;5048850;28;20442;-77
2022/09/19 05:53:54;;;;;;;1.38;1.10;;;10.20;54.50;;;;;;5047028;28;20033;-76
2022/09/19 05:56:40;;;;;;;1.60;1.00;;;10.10;54.40;;;;;;5038477;28;20428;-76
2022/09/19 05:59:10;;;;;;;1.73;1.05;;;10.10;54.40;;;;;;5038603;28;20024;-76
2022/09/19 06:01:38;;;;;;;0.90;0.85;;;10.10;54.50;;;;;;5058349;28;20102;-77
2022/09/19 06:04:10;;;;;;;1.30;1.15;;;10.10;54.60;;;;;;5045049;28;20048;-76
2022/09/19 06:06:39;;;;;;;1.85;1.15;;;10.10;54.60;;;;;;5044343;28;20446;-75
2022/09/19 06:09:08;;;;;;;1.10;1.00;;;10.10;54.70;;;;;;5046442;28;20029;-76
2022/09/19 06:11:40;;;;;;;1.83;1.30;;;10.10;54.70;;;;;;5045912;28;20046;-75
2022/09/19 06:14:18;;;;;;;1.65;1.27;;;10.10;54.80;;;;;;5030649;28;20087;-76
2022/09/19 06:16:47;;;;;;;1.38;1.25;;;10.10;54.90;;;;;;5035346;28;20083;-76
2022/09/19 06:19:26;;;;;;;2.03;1.88;;;10.10;54.80;;;;;;5037641;28;20036;-75
2022/09/19 06:22:00;;;;;;;1.20;1.10;;;10.10;54.90;;;;;;5044702;28;20118;-76
2022/09/19 06:24:27;;;;;;;2.63;1.30;;;10.10;54.90;;;;;;5029011;28;20589;-75
2022/09/19 06:26:54;;;;;;;1.27;1.17;;;10.20;55.10;;;;;;5047010;28;20039;-76
2022/09/19 06:29:21;;;;;;;1.10;1.00;;;10.10;55.00;;;;;;5030062;28;20090;-76
2022/09/19 06:32:09;;;;;;;3.00;1.48;;;10.20;55.20;;;;;;5041953;28;20041;-76
2022/09/19 06:34:41;;;;;;;1.70;1.25;;;10.30;55.30;;;;;;5041962;28;20029;-75
2022/09/19 06:37:08;;;;;;;1.83;1.33;;;10.30;55.30;;;;;;5040799;28;20041;-78
2022/09/19 06:39:37;;;;;;;3.33;1.52;;;10.40;55.40;;;;;;5027646;28;20052;-73
2022/09/19 06:42:29;;;;;;;1.55;1.20;;;10.40;55.60;;;;;;5049651;28;20037;-77
2022/09/19 06:45:24;;;;;;;1.17;1.02;;;10.50;56.00;;;;;;5047624;28;20029;-76
2022/09/19 06:48:12;;;;;;;1.30;1.20;;;10.70;56.30;;;;;;5039944;28;20422;-76
2022/09/19 06:50:48;;;;;;;2.38;1.20;;;10.80;56.50;;;;;;5044039;28;20057;-74
2022/09/19 06:53:17;;;;;;;1.60;1.50;;;10.80;56.50;;;;;;5046827;28;20033;-74
2022/09/19 06:55:44;;;;;;;1.55;1.45;;;10.90;56.70;;;;;;5025936;28;20458;-74
2022/09/19 06:58:16;;;;;;;1.52;1.15;;;11.00;56.90;;;;;;5031273;28;20037;-75
2022/09/19 07:00:44;;;;;;;1.65;0.98;;;11.10;57.00;;;;;;5028615;28;20040;-75
2022/09/19 07:03:15;;;;;;;2.08;1.45;;;11.10;57.00;;;;;;5047070;28;20555;-75
2022/09/19 07:05:47;;;;;;;1.63;1.25;;;11.20;57.20;;;;;;5041926;28;20040;-76
2022/09/19 07:08:20;;;;;;;1.48;1.20;;;11.30;57.30;;;;;;5043326;28;20033;-75
2022/09/19 07:10:47;;;;;;;2.30;1.23;;;11.30;57.30;;;;;;5024837;28;20032;-75
2022/09/19 07:13:14;;;;;;;2.25;1.10;;;11.40;57.40;;;;;;5044255;28;20037;-76
2022/09/19 07:15:41;;;;;;;1.52;0.88;;;11.50;57.50;;;;;;5016272;28;20041;-74
2022/09/19 07:18:08;;;;;;;1.63;1.20;;;11.60;57.60;;;;;;5008959;28;20051;-74
2022/09/19 07:20:37;;;;;;;1.98;1.35;;;11.60;58.10;;;;;;5051729;28;20504;-74
2022/09/19 07:23:18;;;;;;;1.63;1.13;;;11.70;57.70;;;;;;5042916;28;20071;-75
2022/09/19 07:25:55;;;;;;;1.42;1.30;;;11.80;57.80;;;;;;5047968;28;20596;-76
2022/09/19 07:28:23;;;;;;;2.67;1.92;;;11.90;57.90;;;;;;5058839;28;20031;-75
2022/09/19 07:30:51;;;;;;;1.23;1.00;;;12.00;58.00;;;;;;5045860;28;20489;-75
2022/09/19 07:33:23;;;;;;;3.15;1.75;;;12.10;58.20;;;;;;5044764;28;20033;-77
2022/09/19 07:35:51;;;;;;;1.65;1.27;;;12.20;58.40;;;;;;5039554;28;20033;-81
2022/09/19 07:38:20;;;;;;;1.33;1.23;;;12.20;58.30;;;;;;5054747;28;20238;-82
2022/09/19 07:41:09;;;;;;;1.35;1.05;;;12.30;58.50;;;;;;5059611;28;20037;-82
2022/09/19 07:43:47;;;;;;;1.67;1.48;;;12.40;58.50;;;;;;5048956;28;20043;-81
2022/09/19 07:46:15;;;;;;;1.58;1.23;;;12.50;58.70;;;;;;5052448;28;20116;-87
2022/09/19 07:49:00;;;;;;;1.27;1.13;;;12.60;58.80;;;;;;5043045;28;20048;-84
2022/09/19 07:51:43;;;;;;;1.52;1.05;;;12.80;59.10;;;;;;5064573;28;20060;-85
2022/09/19 07:54:09;;;;;;;2.22;1.30;;;12.80;58.90;;;;;;5048883;28;20052;-84
2022/09/19 07:56:35;;;;;;;1.10;0.95;;;12.90;59.10;;;;;;5049959;28;20064;-83
2022/09/19 07:59:02;;;;;;;2.75;1.35;;;13.00;59.20;;;;;;5071524;28;20102;-84
2022/09/19 08:01:40;;;;;;;1.88;1.08;;;13.10;59.40;;;;;;5023081;28;20416;-83
2022/09/19 08:04:10;;;;;;;2.20;1.35;;;13.20;59.60;;;;;;5050686;28;20025;-84
2022/09/19 08:07:19;;;;;;;1.25;0.98;;;13.40;59.90;;;;;;5051076;28;20037;-85
2022/09/19 08:09:45;;;;;;;1.23;1.13;;;13.50;60.00;;;;;;5036026;28;20093;-82
2022/09/19 08:12:23;;;;;;;2.03;1.10;;;13.60;59.90;;;;;;5054647;28;20104;-83
2022/09/19 08:15:00;;;;;;;2.28;1.65;;;13.70;59.90;;;;;;5032481;28;20505;-85
2022/09/19 08:17:26;;;;;;;2.00;1.67;;;13.90;60.10;;;;;;5037346;28;20043;-82
2022/09/19 08:19:55;;;;;;;3.50;2.17;;;14.00;60.20;;;;;;5033946;28;20302;-82
2022/09/19 08:22:21;;;;;;;3.63;2.60;;;14.10;60.20;;;;;;5038138;28;20041;-83
2022/09/19 08:24:54;;;;;;;2.83;2.33;;;14.20;60.20;;;;;;5034499;28;20049;-81
2022/09/19 08:27:24;;;;;;;2.38;2.17;;;14.30;60.30;;;;;;5052400;28;20504;-83
2022/09/19 08:29:50;;;;;;;2.42;1.48;;;14.50;60.50;;;;;;5054378;28;20040;-83
2022/09/19 08:32:18;;;;;;;2.13;1.88;;;14.60;60.60;;;;;;5034279;28;20033;-82
2022/09/19 08:34:44;;;;;;;1.92;1.60;;;14.70;60.70;;;;;;5049348;28;21143;-77
2022/09/19 08:37:12;;;;;;;1.90;1.40;;;14.80;60.80;;;;;;5043585;28;20074;-79
2022/09/19 08:40:15;;;;;;;3.08;1.63;;;15.00;61.10;;;;;;5048336;28;20441;-76
2022/09/19 08:42:57;;;;;;;1.15;1.00;;;15.10;61.20;;;;;;5042799;28;20044;-76
2022/09/19 08:45:25;;;;;;;1.75;1.20;;;15.30;61.40;;;;;;5035029;28;20041;-75
2022/09/19 08:47:52;;;;;;;3.42;1.33;;;15.40;61.40;;;;;;5045253;28;20036;-76
2022/09/19 08:50:31;;;;;;;2.90;1.13;;;15.50;61.60;;;;;;5032195;28;20048;-75
2022/09/19 08:53:04;;;;;;;1.67;1.17;;;15.60;61.80;;;;;;5047746;28;20024;-75
2022/09/19 08:55:37;;;;;;;3.15;1.30;;;15.80;61.90;;;;;;5053352;28;20055;-74
2022/09/19 08:58:18;;;;;;;1.85;1.25;;;15.90;62.10;;;;;;5047912;28;20040;-73
2022/09/19 09:01:09;;;;;;;1.83;1.50;;;16.00;62.20;;;;;;5048159;28;20025;-75
2022/09/19 09:03:57;;;;;;;2.35;1.52;;;16.20;62.30;;;;;;5048712;28;20033;-75
2022/09/19 09:06:50;;;;;;;2.70;1.38;;;16.30;62.30;;;;;;5049519;28;20037;-75
2022/09/19 09:09:31;;;;;;;3.15;1.98;;;16.40;62.60;;;;;;5057799;28;20033;-76
2022/09/19 09:12:21;;;;;;;2.35;1.10;;;16.60;62.80;;;;;;5028252;28;20040;-75
2022/09/19 09:15:02;;;;;;;2.00;1.20;;;16.70;62.70;;;;;;5038535;28;20037;-77
2022/09/19 09:17:54;;;;;;;2.45;1.40;;;16.80;62.80;;;;;;5051046;28;20079;-77
2022/09/19 09:20:45;;;;;;;1.50;1.25;;;17.00;63.30;;;;;;5043077;28;20037;-76
2022/09/19 09:23:30;;;;;;;2.85;1.50;;;17.20;63.40;;;;;;5030139;28;20211;-75
2022/09/19 09:26:38;;;;;;;3.55;1.40;;;17.30;63.20;;;;;;5032568;28;20037;-75
2022/09/19 09:29:15;;;;;;;2.88;1.92;;;17.50;63.30;;;;;;5012835;28;20568;-75
2022/09/19 09:32:21;;;;;;;3.80;1.30;;;17.60;63.20;;;;;;5043109;28;20497;-76
2022/09/19 09:35:00;;;;;;;2.10;1.30;;;17.80;63.30;;;;;;5042184;28;20032;-74
2022/09/19 09:38:11;;;;;;;3.42;1.23;;;17.90;63.20;;;;;;5047131;28;20035;-73
2022/09/19 09:44:01;;;;;;;1.95;1.30;;;18.20;63.20;;;;;;5018125;28;20046;-75
2022/09/19 09:46:50;;;;;;;1.13;1.02;;;18.40;63.20;;;;;;5019385;28;20044;-75
2022/09/19 09:49:22;;;;;;;2.95;1.10;;;18.60;63.20;;;;;;5027411;28;20048;-75
2022/09/19 09:52:10;;;;;;;2.08;1.17;;;18.80;63.10;;;;;;5026830;28;20049;-89
2022/09/19 09:58:19;;;;;;;2.30;1.40;;;19.20;63.00;;;;;;5021103;28;20273;-82
2022/09/19 10:04:03;;;;;;;2.22;0.90;;;19.60;62.80;;;;;;5047839;28;20036;-82
2022/09/19 10:06:42;;;;;;;1.15;0.95;;;19.80;62.60;;;;;;5050386;28;20033;-82
2022/09/19 10:09:35;;;;;;;4.07;1.95;;;20.00;62.50;;;;;;5050295;28;20037;-82
2022/09/19 10:12:14;;;;;;;0.85;0.80;;;20.20;62.30;;;;;;5015099;28;20041;-82
2022/09/19 10:14:41;;;;;;;1.13;1.02;;;20.40;62.20;;;;;;5064138;28;20394;-82
2022/09/19 10:17:39;;;;;;;1.13;0.95;;;20.50;61.90;;;;;;5036835;28;20041;-81
2022/09/19 10:20:22;;;;;;;1.10;0.80;;;20.70;61.70;;;;;;5054932;28;20506;-84
2022/09/19 10:22:50;;;;;;;1.55;0.80;;;20.90;61.50;;;;;;5036407;28;20031;-80
2022/09/19 10:25:20;;;;;;;1.15;1.05;;;21.10;61.50;;;;;;5049514;28;20039;-79
2022/09/19 10:27:49;;;;;;;2.53;1.10;;;21.20;61.30;;;;;;5049495;28;20037;-79
2022/09/19 10:30:41;;;;;;;1.52;1.08;;;21.30;61.00;;;;;;5045932;28;20488;-80
2022/09/19 10:33:44;;;;;;;2.30;0.85;;;21.50;60.90;;;;;;5045637;28;20217;-82
2022/09/19 10:36:28;;;;;;;1.33;0.90;;;21.70;60.60;;;;;;5042093;28;20040;-83
2022/09/19 10:38:58;;;;;;;1.17;0.93;;;21.90;60.60;;;;;;5033199;28;20029;-83
2022/09/19 10:41:31;;;;;;;3.10;0.63;;;22.00;60.40;;;;;;5030384;28;20024;-79
2022/09/19 10:44:06;;;;;;;2.88;0.80;;;22.20;60.30;;;;;;5048886;28;20036;-78
2022/09/19 10:46:36;;;;;;;;;;;22.30;60.10;;;;;;5049635;28;20082;-80
2022/09/19 10:49:28;;;;;;;1.50;0.68;;;22.40;60.00;;;;;;5052787;28;19909;-80
2022/09/19 10:51:59;;;;;;;2.28;1.00;;;22.60;60.10;;;;;;5038716;28;20029;-80
2022/09/19 10:54:40;;;;;;;2.17;1.08;;;22.60;59.80;;;;;;5028156;28;20036;-80
2022/09/19 10:57:40;;;;;;;1.33;0.85;;;22.70;59.50;;;;;;5034162;28;20399;-81
2022/09/19 11:00:22;;;;;;;0.98;0.70;;;22.80;59.30;;;;;;5050369;28;20040;-80
2022/09/19 11:03:23;;;;;;;1.83;0.65;;;22.90;59.30;;;;;;5030106;28;20144;-81
2022/09/19 11:06:10;;;;;;;1.33;0.82;;;23.00;59.30;;;;;;5032686;28;20369;-74
2022/09/19 11:08:46;;;;;;;2.38;0.95;;;23.10;59.10;;;;;;5049383;28;20044;-76
2022/09/19 11:11:37;;;;;;;1.35;0.80;;;23.20;58.90;;;;;;5047227;28;20202;-77
2022/09/19 11:14:36;;;;;;;2.85;1.00;;;23.20;58.40;;;;;;5029732;28;20033;-75
2022/09/19 11:17:19;;;;;;;2.75;1.02;;;23.30;58.90;;;;;;5048533;28;20111;-74
2022/09/19 11:20:25;;;;;;;1.20;0.70;;;23.40;58.10;;;;;;5043204;28;20107;-82
2022/09/19 11:23:27;;;;;;;0.77;0.65;;;23.40;57.20;;;;;;5039140;28;20083;-83
2022/09/19 11:26:15;;;;;;;1.65;0.68;;;23.40;57.10;;;;;;5032398;28;20045;-84
2022/09/19 11:29:02;;;;;;;0.57;0.47;;;23.30;56.70;;;;;;5052846;28;20032;-85
2022/09/19 11:31:41;;;;;;;1.45;1.00;;;23.30;56.40;;;;;;5018636;28;20099;-77
2022/09/19 11:34:46;;;;;;;1.70;1.00;;;23.20;56.30;;;;;;5025701;28;20037;-76
2022/09/19 11:37:32;;;;;;;2.25;0.68;;;23.20;55.80;;;;;;5030910;28;20102;-78
2022/09/19 11:40:30;;;;;;;0.82;0.60;;;23.10;55.70;;;;;;5013682;28;20078;-75
2022/09/19 11:43:29;;;;;;;2.33;0.70;;;23.20;55.70;;;;;;5049567;28;20059;-90
2022/09/19 11:46:15;;;;;;;1.20;0.85;;;23.20;55.50;;;;;;5029313;28;20131;-91
2022/09/19 11:49:00;;;;;;;0.68;0.60;;;23.20;55.20;;;;;;5058950;28;20111;-93
2022/09/19 11:51:49;;;;;;;1.30;0.88;;;23.20;54.80;;;;;;5034711;28;20067;-90
2022/09/19 11:54:59;;;;;;;1.52;1.10;;;23.20;54.70;;;;;;5055026;28;20029;-90
2022/09/19 11:57:41;;;;;;;1.02;0.60;;;23.10;54.20;;;;;;5055244;28;20560;-94
2022/09/19 12:00:15;;;;;;;2.67;0.80;;;23.20;54.60;;;;;;5019031;28;20129;-94
2022/09/19 12:03:25;;;;;;;0.65;0.63;;;23.20;54.30;;;;;;5044223;28;20036;-92
2022/09/19 12:06:24;;;;;;;0.93;0.57;;;23.20;53.90;;;;;;5051430;28;20140;-94
2022/09/19 12:09:25;;;;;;;1.55;0.50;;;23.20;53.90;;;;;;5055427;28;20037;-95
2022/09/19 12:12:09;;;;;;;1.17;0.73;;;23.20;54.20;;;;;;5041444;28;20089;-96
2022/09/19 12:14:49;;;;;;;1.08;0.45;;;23.30;53.80;;;;;;5019647;28;20168;-90
2022/09/19 12:17:38;;;;;;;1.75;0.60;;;23.30;53.70;;;;;;5037587;28;20041;-90
2022/09/19 12:20:27;;;;;;;1.52;0.98;;;23.40;53.50;;;;;;5050628;28;20021;-89
2022/09/19 12:24:52;;;;;;;1.02;0.50;;;23.50;53.50;;;;;;5018309;28;20097;-89
2022/09/19 12:25:51;;;;;;;1.25;0.75;;;23.50;53.50;;;;;;5052061;28;20029;-90
2022/09/19 12:28:19;;;;;;;1.08;0.60;;;23.50;53.30;;;;;;5054412;28;20033;-86
2022/09/19 12:30:52;;;;;;;2.13;0.80;;;23.50;53.20;;;;;;5034621;28;20112;-88
2022/09/19 12:33:48;;;;;;;0.63;0.63;;;23.50;52.90;;;;;;5050790;28;20111;-86
2022/09/19 12:36:45;;;;;;;5.03;1.00;;;23.50;52.40;;;;;;5038728;28;20049;-86
2022/09/19 12:39:20;;;;;;;1.85;1.02;;;23.60;52.50;;;;;;5036031;28;20420;-86
2022/09/19 12:42:08;;;;;;;0.55;0.50;;;23.60;52.60;;;;;;5046853;28;20080;-86
2022/09/19 12:44:47;;;;;;;0.60;0.50;;;23.50;51.90;;;;;;5074583;28;20027;-86
2022/09/19 12:47:43;;;;;;;1.25;0.50;;;23.50;52.00;;;;;;5068409;28;20049;-87
2022/09/19 12:50:32;;;;;;;0.95;0.50;;;23.60;52.10;;;;;;5071703;28;20155;-88
2022/09/19 12:53:22;;;;;;;2.17;1.25;;;23.50;52.10;;;;;;5041176;28;20047;-85
2022/09/19 12:56:01;;;;;;;1.48;0.82;;;23.50;51.90;;;;;;5072511;28;20076;-84
2022/09/19 12:59:00;;;;;;;1.58;0.70;;;23.50;52.00;;;;;;5039234;28;20087;-83
2022/09/19 13:01:35;;;;;;;1.40;1.10;;;23.50;51.90;;;;;;5059586;28;20519;-82
2022/09/19 13:04:31;;;;;;;0.70;0.50;;;23.50;52.00;;;;;;5053879;28;20082;-83
2022/09/19 13:07:35;;;;;;;0.73;0.60;;;23.50;51.90;;;;;;5047990;28;20380;-82
2022/09/19 13:10:20;;;;;;;2.03;0.75;;;23.50;51.80;;;;;;5045377;28;20028;-80
2022/09/19 13:13:04;;;;;;;1.35;0.95;;;23.50;51.90;;;;;;5033462;28;20029;-81
2022/09/19 13:15:35;;;;;;;1.85;1.27;;;23.40;51.90;;;;;;5026648;28;20056;-80
2022/09/19 13:23:38;;;;;;;1.83;1.20;;;23.20;51.80;;;;;;5048327;28;20032;-78
2022/09/19 13:26:24;;;;;;;3.50;1.90;;;23.20;51.90;;;;;;5042921;28;20037;-79
2022/09/19 13:29:08;;;;;;;2.47;1.10;;;23.20;51.90;;;;;;5046788;28;20039;-75
2022/09/19 13:32:00;;;;;;;2.13;1.42;;;23.20;52.10;;;;;;5047378;28;20044;-79
2022/09/19 13:34:37;;;;;;;1.42;1.00;;;23.20;52.00;;;;;;5044147;28;20051;-82
2022/09/19 13:37:32;;;;;;;1.95;1.40;;;23.10;52.00;;;;;;5053367;28;20048;-87
2022/09/19 13:40:03;;;;;;;2.30;0.93;;;23.10;52.20;;;;;;5054553;28;20033;-83
2022/09/19 13:42:40;;;;;;;2.63;1.10;;;23.10;52.50;;;;;;5054515;28;20500;-84
2022/09/19 13:45:20;;;;;;;1.40;1.08;;;23.10;52.50;;;;;;5047980;28;20086;-76
2022/09/19 13:47:51;;;;;;;1.45;0.77;;;23.00;52.40;;;;;;5047771;28;20075;-76
2022/09/19 13:50:32;;;;;;;1.15;0.70;;;23.00;52.40;;;;;;5028560;28;20106;-76
2022/09/19 13:53:02;;;;;;;1.48;0.85;;;23.00;52.50;;;;;;5031152;28;20033;-76
2022/09/19 13:55:36;;;;;;;3.60;0.95;;;23.00;52.60;;;;;;5043853;28;20029;-75
2022/09/19 13:58:28;;;;;;;1.10;0.85;;;23.00;52.70;;;;;;5048805;28;20029;-77
2022/09/19 14:01:12;;;;;;;1.73;1.00;;;23.00;52.90;;;;;;5046028;28;20032;-76
2022/09/19 14:03:56;;;;;;;1.92;1.23;;;23.00;52.80;;;;;;5045758;28;20035;-75